sensor_id;sensor_type;location;lat;lon;timestamp;P1;durP1;ratioP1;P2;durP2;ratioP2
22449;SDS011;11392;57.390;-2.468;2023-08-20T00:01:26;2.25;;;1.90;;
22449;SDS011;11392;57.390;-2.468;2023-08-20T00:03:54;3.33;;;1.83;;
22449;SDS011;11392;57.390;-2.468;2023-08-20T00:06:22;5.00;;;1.90;;
22449;SDS011;11392;57.390;-2.468;2023-08-20T00:08:50;5.07;;;1.83;;
22449;SDS011;11392;57.390;-2.468;2023-08-20T00:11:17;2.70;;;1.75;;
22449;SDS011;11392;57.390;-2.468;2023-08-20T00:13:44;4.25;;;1.67;;
22449;SDS011;11392;57.390;-2.468;2023-08-20T00:16:11;2.58;;;1.52;;
22449;SDS011;11392;57.390;-2.468;2023-08-20T00:18:39;1.60;;;1.50;;
22449;SDS011;11392;57.390;-2.468;2023-08-20T00:21:06;3.63;;;2.30;;
22449;SDS011;11392;57.390;-2.468;2023-08-20T00:23:35;3.30;;;2.13;;
22449;SDS011;11392;57.390;-2.468;2023-08-20T00:26:03;2.97;;;2.00;;
22449;SDS011;11392;57.390;-2.468;2023-08-20T00:28:30;3.63;;;2.10;;
22449;SDS011;11392;57.390;-2.468;2023-08-20T00:31:00;1.50;;;1.40;;
22449;SDS011;11392;57.390;-2.468;2023-08-20T00:33:28;5.18;;;2.10;;
22449;SDS011;11392;57.390;-2.468;2023-08-20T00:35:55;3.53;;;1.80;;
22449;SDS011;11392;57.390;-2.468;2023-08-20T00:38:22;4.70;;;2.05;;
22449;SDS011;11392;57.390;-2.468;2023-08-20T00:40:49;6.43;;;1.80;;
22449;SDS011;11392;57.390;-2.468;2023-08-20T00:43:16;3.40;;;1.90;;
22449;SDS011;11392;57.390;-2.468;2023-08-20T00:45:43;3.50;;;2.10;;
22449;SDS011;11392;57.390;-2.468;2023-08-20T00:48:10;4.75;;;1.90;;
22449;SDS011;11392;57.390;-2.468;2023-08-20T00:50:39;3.83;;;1.85;;
22449;SDS011;11392;57.390;-2.468;2023-08-20T00:53:07;5.05;;;1.88;;
22449;SDS011;11392;57.390;-2.468;2023-08-20T00:55:36;4.75;;;2.15;;
22449;SDS011;11392;57.390;-2.468;2023-08-20T00:58:03;3.33;;;1.73;;
22449;SDS011;11392;57.390;-2.468;2023-08-20T01:00:31;6.72;;;2.15;;
22449;SDS011;11392;57.390;-2.468;2023-08-20T01:02:58;3.92;;;1.88;;
22449;SDS011;11392;57.390;-2.468;2023-08-20T01:05:25;2.83;;;1.70;;
22449;SDS011;11392;57.390;-2.468;2023-08-20T01:11:03;3.30;;;2.17;;
22449;SDS011;11392;57.390;-2.468;2023-08-20T01:13:39;4.90;;;3.13;;
22449;SDS011;11392;57.390;-2.468;2023-08-20T01:16:06;3.05;;;1.80;;
22449;SDS011;11392;57.390;-2.468;2023-08-20T01:18:33;4.28;;;1.80;;
22449;SDS011;11392;57.390;-2.468;2023-08-20T01:21:04;5.47;;;2.00;;
22449;SDS011;11392;57.390;-2.468;2023-08-20T01:29:29;4.32;;;1.67;;
22449;SDS011;11392;57.390;-2.468;2023-08-20T01:31:58;4.53;;;1.80;;
22449;SDS011;11392;57.390;-2.468;2023-08-20T01:34:25;5.43;;;1.90;;
22449;SDS011;11392;57.390;-2.468;2023-08-20T01:36:53;3.50;;;1.67;;
22449;SDS011;11392;57.390;-2.468;2023-08-20T01:39:20;2.22;;;1.65;;
22449;SDS011;11392;57.390;-2.468;2023-08-20T01:41:47;5.32;;;2.58;;
22449;SDS011;11392;57.390;-2.468;2023-08-20T01:44:14;6.00;;;2.60;;
22449;SDS011;11392;57.390;-2.468;2023-08-20T01:46:41;5.38;;;2.10;;
22449;SDS011;11392;57.390;-2.468;2023-08-20T01:49:09;2.83;;;1.80;;
22449;SDS011;11392;57.390;-2.468;2023-08-20T01:51:36;5.97;;;2.40;;
22449;SDS011;11392;57.390;-2.468;2023-08-20T01:54:03;2.95;;;2.05;;
22449;SDS011;11392;57.390;-2.468;2023-08-20T01:56:30;4.57;;;2.08;;
22449;SDS011;11392;57.390;-2.468;2023-08-20T01:58:57;2.47;;;1.90;;
22449;SDS011;11392;57.390;-2.468;2023-08-20T02:01:24;4.72;;;1.80;;
22449;SDS011;11392;57.390;-2.468;2023-08-20T02:03:51;4.65;;;2.20;;
22449;SDS011;11392;57.390;-2.468;2023-08-20T02:06:18;2.53;;;1.70;;
22449;SDS011;11392;57.390;-2.468;2023-08-20T02:08:45;2.70;;;1.70;;
22449;SDS011;11392;57.390;-2.468;2023-08-20T02:11:12;8.40;;;1.92;;
22449;SDS011;11392;57.390;-2.468;2023-08-20T02:13:39;4.03;;;2.30;;
22449;SDS011;11392;57.390;-2.468;2023-08-20T02:16:06;2.67;;;1.77;;
22449;SDS011;11392;57.390;-2.468;2023-08-20T02:18:33;2.97;;;2.08;;
22449;SDS011;11392;57.390;-2.468;2023-08-20T02:21:00;5.22;;;2.28;;
22449;SDS011;11392;57.390;-2.468;2023-08-20T02:23:27;5.18;;;2.10;;
22449;SDS011;11392;57.390;-2.468;2023-08-20T02:25:54;4.00;;;1.85;;
22449;SDS011;11392;57.390;-2.468;2023-08-20T02:28:21;5.65;;;2.35;;
22449;SDS011;11392;57.390;-2.468;2023-08-20T02:30:49;3.85;;;2.00;;
22449;SDS011;11392;57.390;-2.468;2023-08-20T02:33:16;4.85;;;2.10;;
22449;SDS011;11392;57.390;-2.468;2023-08-20T02:35:43;4.85;;;1.80;;
22449;SDS011;11392;57.390;-2.468;2023-08-20T02:38:10;4.47;;;1.92;;
22449;SDS011;11392;57.390;-2.468;2023-08-20T02:40:40;7.60;;;3.65;;
22449;SDS011;11392;57.390;-2.468;2023-08-20T02:43:08;5.85;;;2.25;;
22449;SDS011;11392;57.390;-2.468;2023-08-20T02:45:42;6.55;;;2.42;;
22449;SDS011;11392;57.390;-2.468;2023-08-20T02:48:10;4.72;;;2.25;;
22449;SDS011;11392;57.390;-2.468;2023-08-20T02:50:37;4.32;;;2.05;;
22449;SDS011;11392;57.390;-2.468;2023-08-20T02:53:04;7.15;;;3.35;;
22449;SDS011;11392;57.390;-2.468;2023-08-20T02:55:32;4.45;;;2.72;;
22449;SDS011;11392;57.390;-2.468;2023-08-20T02:58:00;4.82;;;2.45;;
22449;SDS011;11392;57.390;-2.468;2023-08-20T03:00:27;6.78;;;2.72;;
22449;SDS011;11392;57.390;-2.468;2023-08-20T03:02:54;5.40;;;2.13;;
22449;SDS011;11392;57.390;-2.468;2023-08-20T03:05:22;6.40;;;3.03;;
22449;SDS011;11392;57.390;-2.468;2023-08-20T03:07:49;7.30;;;2.80;;
22449;SDS011;11392;57.390;-2.468;2023-08-20T03:10:16;7.50;;;2.60;;
22449;SDS011;11392;57.390;-2.468;2023-08-20T03:12:43;7.13;;;2.45;;
22449;SDS011;11392;57.390;-2.468;2023-08-20T03:15:10;9.20;;;3.30;;
22449;SDS011;11392;57.390;-2.468;2023-08-20T03:17:37;8.43;;;2.72;;
22449;SDS011;11392;57.390;-2.468;2023-08-20T03:20:05;11.65;;;2.50;;
22449;SDS011;11392;57.390;-2.468;2023-08-20T03:22:33;7.53;;;2.90;;
22449;SDS011;11392;57.390;-2.468;2023-08-20T03:25:02;7.97;;;2.63;;
22449;SDS011;11392;57.390;-2.468;2023-08-20T03:27:29;5.65;;;2.40;;
22449;SDS011;11392;57.390;-2.468;2023-08-20T03:29:57;7.70;;;2.58;;
22449;SDS011;11392;57.390;-2.468;2023-08-20T03:32:24;3.90;;;2.15;;
22449;SDS011;11392;57.390;-2.468;2023-08-20T03:34:51;5.35;;;2.78;;
22449;SDS011;11392;57.390;-2.468;2023-08-20T03:37:20;5.70;;;2.50;;
22449;SDS011;11392;57.390;-2.468;2023-08-20T03:39:48;5.20;;;2.50;;
22449;SDS011;11392;57.390;-2.468;2023-08-20T03:42:15;8.35;;;2.58;;
22449;SDS011;11392;57.390;-2.468;2023-08-20T03:44:42;4.78;;;2.85;;
22449;SDS011;11392;57.390;-2.468;2023-08-20T03:47:09;5.47;;;2.60;;
22449;SDS011;11392;57.390;-2.468;2023-08-20T03:49:37;9.40;;;2.90;;
22449;SDS011;11392;57.390;-2.468;2023-08-20T03:52:04;4.10;;;1.85;;
22449;SDS011;11392;57.390;-2.468;2023-08-20T03:54:33;6.88;;;3.22;;
22449;SDS011;11392;57.390;-2.468;2023-08-20T03:57:00;3.97;;;2.15;;
22449;SDS011;11392;57.390;-2.468;2023-08-20T03:59:27;5.90;;;2.55;;
22449;SDS011;11392;57.390;-2.468;2023-08-20T04:01:55;7.05;;;2.88;;
22449;SDS011;11392;57.390;-2.468;2023-08-20T04:04:22;4.25;;;2.38;;
22449;SDS011;11392;57.390;-2.468;2023-08-20T04:06:50;5.78;;;2.80;;
22449;SDS011;11392;57.390;-2.468;2023-08-20T04:09:17;3.83;;;2.20;;
22449;SDS011;11392;57.390;-2.468;2023-08-20T04:11:44;3.55;;;2.22;;
22449;SDS011;11392;57.390;-2.468;2023-08-20T04:14:11;3.83;;;2.05;;
22449;SDS011;11392;57.390;-2.468;2023-08-20T04:16:38;9.45;;;2.63;;
22449;SDS011;11392;57.390;-2.468;2023-08-20T04:19:05;6.10;;;2.30;;
22449;SDS011;11392;57.390;-2.468;2023-08-20T04:21:31;12.90;;;2.70;;
22449;SDS011;11392;57.390;-2.468;2023-08-20T04:23:59;6.32;;;2.60;;
22449;SDS011;11392;57.390;-2.468;2023-08-20T04:26:26;5.38;;;2.17;;
22449;SDS011;11392;57.390;-2.468;2023-08-20T04:28:52;5.88;;;2.30;;
22449;SDS011;11392;57.390;-2.468;2023-08-20T04:31:19;4.68;;;2.53;;
22449;SDS011;11392;57.390;-2.468;2023-08-20T04:33:46;6.95;;;2.38;;
22449;SDS011;11392;57.390;-2.468;2023-08-20T04:36:13;6.93;;;2.70;;
22449;SDS011;11392;57.390;-2.468;2023-08-20T04:38:40;6.10;;;3.30;;
22449;SDS011;11392;57.390;-2.468;2023-08-20T04:41:07;8.57;;;2.58;;
22449;SDS011;11392;57.390;-2.468;2023-08-20T04:43:34;8.15;;;2.30;;
22449;SDS011;11392;57.390;-2.468;2023-08-20T04:46:01;6.35;;;2.40;;
22449;SDS011;11392;57.390;-2.468;2023-08-20T04:48:28;5.47;;;2.30;;
22449;SDS011;11392;57.390;-2.468;2023-08-20T04:50:55;7.45;;;2.67;;
22449;SDS011;11392;57.390;-2.468;2023-08-20T04:53:22;5.72;;;2.70;;
22449;SDS011;11392;57.390;-2.468;2023-08-20T04:55:49;4.35;;;2.45;;
22449;SDS011;11392;57.390;-2.468;2023-08-20T04:58:16;5.88;;;3.20;;
22449;SDS011;11392;57.390;-2.468;2023-08-20T05:00:43;5.53;;;2.85;;
22449;SDS011;11392;57.390;-2.468;2023-08-20T05:03:10;7.00;;;2.92;;
22449;SDS011;11392;57.390;-2.468;2023-08-20T05:05:37;16.92;;;4.95;;
22449;SDS011;11392;57.390;-2.468;2023-08-20T05:08:04;7.35;;;3.20;;
22449;SDS011;11392;57.390;-2.468;2023-08-20T05:10:32;7.28;;;3.65;;
22449;SDS011;11392;57.390;-2.468;2023-08-20T05:12:59;5.90;;;3.38;;
22449;SDS011;11392;57.390;-2.468;2023-08-20T05:15:26;5.22;;;2.78;;
22449;SDS011;11392;57.390;-2.468;2023-08-20T05:17:53;6.10;;;2.83;;
22449;SDS011;11392;57.390;-2.468;2023-08-20T05:20:20;5.25;;;2.70;;
22449;SDS011;11392;57.390;-2.468;2023-08-20T05:22:47;5.88;;;2.90;;
22449;SDS011;11392;57.390;-2.468;2023-08-20T05:25:14;4.85;;;2.72;;
22449;SDS011;11392;57.390;-2.468;2023-08-20T05:27:41;5.57;;;2.90;;
22449;SDS011;11392;57.390;-2.468;2023-08-20T05:30:08;7.47;;;2.67;;
22449;SDS011;11392;57.390;-2.468;2023-08-20T05:32:35;9.05;;;2.70;;
22449;SDS011;11392;57.390;-2.468;2023-08-20T05:35:03;5.10;;;2.40;;
22449;SDS011;11392;57.390;-2.468;2023-08-20T05:37:30;5.78;;;2.15;;
22449;SDS011;11392;57.390;-2.468;2023-08-20T05:39:58;8.60;;;3.28;;
22449;SDS011;11392;57.390;-2.468;2023-08-20T05:42:25;6.95;;;3.10;;
22449;SDS011;11392;57.390;-2.468;2023-08-20T05:44:52;6.65;;;3.22;;
22449;SDS011;11392;57.390;-2.468;2023-08-20T05:47:19;6.40;;;2.60;;
22449;SDS011;11392;57.390;-2.468;2023-08-20T05:49:46;6.93;;;3.40;;
22449;SDS011;11392;57.390;-2.468;2023-08-20T05:52:13;6.03;;;2.90;;
22449;SDS011;11392;57.390;-2.468;2023-08-20T05:54:40;6.85;;;3.15;;
22449;SDS011;11392;57.390;-2.468;2023-08-20T05:57:07;6.22;;;3.22;;
22449;SDS011;11392;57.390;-2.468;2023-08-20T05:59:34;7.95;;;2.85;;
22449;SDS011;11392;57.390;-2.468;2023-08-20T06:02:02;7.97;;;3.65;;
22449;SDS011;11392;57.390;-2.468;2023-08-20T06:04:30;5.25;;;3.28;;
22449;SDS011;11392;57.390;-2.468;2023-08-20T06:06:57;6.40;;;3.90;;
22449;SDS011;11392;57.390;-2.468;2023-08-20T06:09:25;7.82;;;3.50;;
22449;SDS011;11392;57.390;-2.468;2023-08-20T06:11:52;17.02;;;5.22;;
22449;SDS011;11392;57.390;-2.468;2023-08-20T06:14:19;8.23;;;3.83;;
22449;SDS011;11392;57.390;-2.468;2023-08-20T06:16:46;5.88;;;3.58;;
22449;SDS011;11392;57.390;-2.468;2023-08-20T06:19:13;7.97;;;3.08;;
22449;SDS011;11392;57.390;-2.468;2023-08-20T06:21:40;7.47;;;3.38;;
22449;SDS011;11392;57.390;-2.468;2023-08-20T06:24:07;4.93;;;2.90;;
22449;SDS011;11392;57.390;-2.468;2023-08-20T06:26:35;4.40;;;2.65;;
22449;SDS011;11392;57.390;-2.468;2023-08-20T06:29:02;4.30;;;2.60;;
22449;SDS011;11392;57.390;-2.468;2023-08-20T06:31:29;4.35;;;2.80;;
22449;SDS011;11392;57.390;-2.468;2023-08-20T06:33:56;4.68;;;3.03;;
22449;SDS011;11392;57.390;-2.468;2023-08-20T06:36:23;4.03;;;2.50;;
22449;SDS011;11392;57.390;-2.468;2023-08-20T06:38:50;5.15;;;2.72;;
22449;SDS011;11392;57.390;-2.468;2023-08-20T06:41:17;6.95;;;2.90;;
22449;SDS011;11392;57.390;-2.468;2023-08-20T06:43:45;6.55;;;3.28;;
22449;SDS011;11392;57.390;-2.468;2023-08-20T06:46:12;4.22;;;2.72;;
22449;SDS011;11392;57.390;-2.468;2023-08-20T06:48:39;3.53;;;2.97;;
22449;SDS011;11392;57.390;-2.468;2023-08-20T06:51:12;5.45;;;2.60;;
22449;SDS011;11392;57.390;-2.468;2023-08-20T06:53:41;4.97;;;4.10;;
22449;SDS011;11392;57.390;-2.468;2023-08-20T06:56:09;3.25;;;2.22;;
22449;SDS011;11392;57.390;-2.468;2023-08-20T06:58:38;2.95;;;2.30;;
22449;SDS011;11392;57.390;-2.468;2023-08-20T07:01:06;3.88;;;2.05;;
22449;SDS011;11392;57.390;-2.468;2023-08-20T07:03:34;4.63;;;2.30;;
22449;SDS011;11392;57.390;-2.468;2023-08-20T07:06:09;2.63;;;1.90;;
22449;SDS011;11392;57.390;-2.468;2023-08-20T07:08:37;3.40;;;2.10;;
22449;SDS011;11392;57.390;-2.468;2023-08-20T07:11:06;2.42;;;1.67;;
22449;SDS011;11392;57.390;-2.468;2023-08-20T07:13:33;7.35;;;3.10;;
22449;SDS011;11392;57.390;-2.468;2023-08-20T07:16:00;6.88;;;2.65;;
22449;SDS011;11392;57.390;-2.468;2023-08-20T07:18:28;4.30;;;1.83;;
22449;SDS011;11392;57.390;-2.468;2023-08-20T07:20:55;5.00;;;2.20;;
22449;SDS011;11392;57.390;-2.468;2023-08-20T07:23:22;5.55;;;2.03;;
22449;SDS011;11392;57.390;-2.468;2023-08-20T07:25:50;4.60;;;2.42;;
22449;SDS011;11392;57.390;-2.468;2023-08-20T07:28:18;5.60;;;2.72;;
22449;SDS011;11392;57.390;-2.468;2023-08-20T07:31:08;4.78;;;2.47;;
22449;SDS011;11392;57.390;-2.468;2023-08-20T07:33:35;5.43;;;2.30;;
22449;SDS011;11392;57.390;-2.468;2023-08-20T07:36:02;4.60;;;2.38;;
22449;SDS011;11392;57.390;-2.468;2023-08-20T07:38:30;4.63;;;2.45;;
22449;SDS011;11392;57.390;-2.468;2023-08-20T07:40:57;3.80;;;2.13;;
22449;SDS011;11392;57.390;-2.468;2023-08-20T07:43:24;2.95;;;2.05;;
22449;SDS011;11392;57.390;-2.468;2023-08-20T07:45:51;4.35;;;2.30;;
22449;SDS011;11392;57.390;-2.468;2023-08-20T07:48:18;3.42;;;2.33;;
22449;SDS011;11392;57.390;-2.468;2023-08-20T07:50:45;3.70;;;2.00;;
22449;SDS011;11392;57.390;-2.468;2023-08-20T07:53:12;3.22;;;2.00;;
22449;SDS011;11392;57.390;-2.468;2023-08-20T07:55:39;3.92;;;1.58;;
22449;SDS011;11392;57.390;-2.468;2023-08-20T07:58:07;4.43;;;2.05;;
22449;SDS011;11392;57.390;-2.468;2023-08-20T08:00:34;5.13;;;1.92;;
22449;SDS011;11392;57.390;-2.468;2023-08-20T08:03:02;3.10;;;1.77;;
22449;SDS011;11392;57.390;-2.468;2023-08-20T08:05:29;4.93;;;1.60;;
22449;SDS011;11392;57.390;-2.468;2023-08-20T08:07:56;2.38;;;1.65;;
22449;SDS011;11392;57.390;-2.468;2023-08-20T08:10:23;3.30;;;1.80;;
22449;SDS011;11392;57.390;-2.468;2023-08-20T08:12:50;3.63;;;1.70;;
22449;SDS011;11392;57.390;-2.468;2023-08-20T08:15:17;3.38;;;1.63;;
22449;SDS011;11392;57.390;-2.468;2023-08-20T08:17:44;3.40;;;1.73;;
22449;SDS011;11392;57.390;-2.468;2023-08-20T08:20:12;2.30;;;1.40;;
22449;SDS011;11392;57.390;-2.468;2023-08-20T08:22:39;4.07;;;2.10;;
22449;SDS011;11392;57.390;-2.468;2023-08-20T08:25:06;3.85;;;1.67;;
22449;SDS011;11392;57.390;-2.468;2023-08-20T08:27:33;2.28;;;1.48;;
22449;SDS011;11392;57.390;-2.468;2023-08-20T08:30:12;2.88;;;1.23;;
22449;SDS011;11392;57.390;-2.468;2023-08-20T08:32:40;6.47;;;1.50;;
22449;SDS011;11392;57.390;-2.468;2023-08-20T08:35:08;4.45;;;1.30;;
22449;SDS011;11392;57.390;-2.468;2023-08-20T08:37:35;2.25;;;1.45;;
22449;SDS011;11392;57.390;-2.468;2023-08-20T08:40:03;3.47;;;1.67;;
22449;SDS011;11392;57.390;-2.468;2023-08-20T08:42:33;2.13;;;1.20;;
22449;SDS011;11392;57.390;-2.468;2023-08-20T08:45:01;1.30;;;1.20;;
22449;SDS011;11392;57.390;-2.468;2023-08-20T08:47:29;1.27;;;1.17;;
22449;SDS011;11392;57.390;-2.468;2023-08-20T08:49:57;1.55;;;1.02;;
22449;SDS011;11392;57.390;-2.468;2023-08-20T08:52:25;2.03;;;1.27;;
22449;SDS011;11392;57.390;-2.468;2023-08-20T08:54:52;3.05;;;1.10;;
22449;SDS011;11392;57.390;-2.468;2023-08-20T08:57:20;1.35;;;1.05;;
22449;SDS011;11392;57.390;-2.468;2023-08-20T08:59:47;4.63;;;0.90;;
22449;SDS011;11392;57.390;-2.468;2023-08-20T09:02:14;3.50;;;1.58;;
22449;SDS011;11392;57.390;-2.468;2023-08-20T09:04:44;1.25;;;1.00;;
22449;SDS011;11392;57.390;-2.468;2023-08-20T09:07:12;1.05;;;0.80;;
22449;SDS011;11392;57.390;-2.468;2023-08-20T09:09:44;0.80;;;0.80;;
22449;SDS011;11392;57.390;-2.468;2023-08-20T09:12:16;0.50;;;0.50;;
22449;SDS011;11392;57.390;-2.468;2023-08-20T09:14:47;3.55;;;1.38;;
22449;SDS011;11392;57.390;-2.468;2023-08-20T09:17:18;1.70;;;0.95;;
22449;SDS011;11392;57.390;-2.468;2023-08-20T09:19:46;1.52;;;0.70;;
22449;SDS011;11392;57.390;-2.468;2023-08-20T09:22:14;1.75;;;0.80;;
22449;SDS011;11392;57.390;-2.468;2023-08-20T09:24:44;2.30;;;0.95;;
22449;SDS011;11392;57.390;-2.468;2023-08-20T09:27:12;1.55;;;0.70;;
22449;SDS011;11392;57.390;-2.468;2023-08-20T09:29:43;3.03;;;0.98;;
22449;SDS011;11392;57.390;-2.468;2023-08-20T09:32:19;3.88;;;0.80;;
22449;SDS011;11392;57.390;-2.468;2023-08-20T09:34:47;1.63;;;0.95;;
22449;SDS011;11392;57.390;-2.468;2023-08-20T09:37:17;2.70;;;1.02;;
22449;SDS011;11392;57.390;-2.468;2023-08-20T09:39:45;1.48;;;0.70;;
22449;SDS011;11392;57.390;-2.468;2023-08-20T09:42:13;1.00;;;0.70;;
22449;SDS011;11392;57.390;-2.468;2023-08-20T09:44:44;1.38;;;0.77;;
22449;SDS011;11392;57.390;-2.468;2023-08-20T09:47:16;1.67;;;0.77;;
22449;SDS011;11392;57.390;-2.468;2023-08-20T09:49:46;2.78;;;0.88;;
22449;SDS011;11392;57.390;-2.468;2023-08-20T09:52:21;3.88;;;1.25;;
22449;SDS011;11392;57.390;-2.468;2023-08-20T09:55:11;1.80;;;0.60;;
22449;SDS011;11392;57.390;-2.468;2023-08-20T09:57:42;0.88;;;0.70;;
22449;SDS011;11392;57.390;-2.468;2023-08-20T10:00:12;1.95;;;1.42;;
22449;SDS011;11392;57.390;-2.468;2023-08-20T10:02:42;1.67;;;0.70;;
22449;SDS011;11392;57.390;-2.468;2023-08-20T10:05:11;2.33;;;0.95;;
22449;SDS011;11392;57.390;-2.468;2023-08-20T10:07:39;1.30;;;0.60;;
22449;SDS011;11392;57.390;-2.468;2023-08-20T10:10:07;3.40;;;0.93;;
22449;SDS011;11392;57.390;-2.468;2023-08-20T10:12:36;2.03;;;0.70;;
22449;SDS011;11392;57.390;-2.468;2023-08-20T10:15:08;2.45;;;1.13;;
22449;SDS011;11392;57.390;-2.468;2023-08-20T10:17:37;2.22;;;0.70;;
22449;SDS011;11392;57.390;-2.468;2023-08-20T10:20:07;1.20;;;0.73;;
22449;SDS011;11392;57.390;-2.468;2023-08-20T10:22:40;1.27;;;0.70;;
22449;SDS011;11392;57.390;-2.468;2023-08-20T10:25:21;1.48;;;0.85;;
22449;SDS011;11392;57.390;-2.468;2023-08-20T10:27:49;2.90;;;0.90;;
22449;SDS011;11392;57.390;-2.468;2023-08-20T10:30:18;1.63;;;0.93;;
22449;SDS011;11392;57.390;-2.468;2023-08-20T10:32:53;0.63;;;0.52;;
22449;SDS011;11392;57.390;-2.468;2023-08-20T10:35:28;0.70;;;0.47;;
22449;SDS011;11392;57.390;-2.468;2023-08-20T10:38:13;0.60;;;0.60;;
22449;SDS011;11392;57.390;-2.468;2023-08-20T10:46:06;1.00;;;0.70;;
22449;SDS011;11392;57.390;-2.468;2023-08-20T10:48:43;1.13;;;0.50;;
22449;SDS011;11392;57.390;-2.468;2023-08-20T10:59:16;1.70;;;0.60;;
22449;SDS011;11392;57.390;-2.468;2023-08-20T11:01:48;1.83;;;0.70;;
22449;SDS011;11392;57.390;-2.468;2023-08-20T11:04:17;1.77;;;0.80;;
22449;SDS011;11392;57.390;-2.468;2023-08-20T11:06:49;2.97;;;0.80;;
22449;SDS011;11392;57.390;-2.468;2023-08-20T11:09:24;2.50;;;0.65;;
22449;SDS011;11392;57.390;-2.468;2023-08-20T11:11:55;1.20;;;0.90;;
22449;SDS011;11392;57.390;-2.468;2023-08-20T11:14:24;2.03;;;0.93;;
22449;SDS011;11392;57.390;-2.468;2023-08-20T11:16:51;1.98;;;0.75;;
22449;SDS011;11392;57.390;-2.468;2023-08-20T11:19:19;1.70;;;0.95;;
22449;SDS011;11392;57.390;-2.468;2023-08-20T11:21:48;1.52;;;0.80;;
22449;SDS011;11392;57.390;-2.468;2023-08-20T11:24:15;2.15;;;0.90;;
22449;SDS011;11392;57.390;-2.468;2023-08-20T11:26:44;1.70;;;0.77;;
22449;SDS011;11392;57.390;-2.468;2023-08-20T11:29:12;1.88;;;0.82;;
22449;SDS011;11392;57.390;-2.468;2023-08-20T11:31:42;2.20;;;0.90;;
22449;SDS011;11392;57.390;-2.468;2023-08-20T11:34:09;2.83;;;0.70;;
22449;SDS011;11392;57.390;-2.468;2023-08-20T11:36:39;1.02;;;0.65;;
22449;SDS011;11392;57.390;-2.468;2023-08-20T11:39:07;1.88;;;1.00;;
22449;SDS011;11392;57.390;-2.468;2023-08-20T11:41:38;1.95;;;0.70;;
22449;SDS011;11392;57.390;-2.468;2023-08-20T11:44:09;1.65;;;0.90;;
22449;SDS011;11392;57.390;-2.468;2023-08-20T11:46:43;2.20;;;0.70;;
22449;SDS011;11392;57.390;-2.468;2023-08-20T11:49:11;3.03;;;0.73;;
22449;SDS011;11392;57.390;-2.468;2023-08-20T11:51:42;2.38;;;1.10;;
22449;SDS011;11392;57.390;-2.468;2023-08-20T11:54:16;1.50;;;0.88;;
22449;SDS011;11392;57.390;-2.468;2023-08-20T11:56:44;0.77;;;0.60;;
22449;SDS011;11392;57.390;-2.468;2023-08-20T11:59:13;1.38;;;0.85;;
22449;SDS011;11392;57.390;-2.468;2023-08-20T12:01:41;1.10;;;0.90;;
22449;SDS011;11392;57.390;-2.468;2023-08-20T12:04:09;1.90;;;0.90;;
22449;SDS011;11392;57.390;-2.468;2023-08-20T12:06:37;1.90;;;0.90;;
22449;SDS011;11392;57.390;-2.468;2023-08-20T12:09:24;1.90;;;0.90;;
22449;SDS011;11392;57.390;-2.468;2023-08-20T12:11:52;1.13;;;0.85;;
22449;SDS011;11392;57.390;-2.468;2023-08-20T12:14:22;2.08;;;0.90;;
22449;SDS011;11392;57.390;-2.468;2023-08-20T12:16:50;2.42;;;1.20;;
22449;SDS011;11392;57.390;-2.468;2023-08-20T12:19:20;1.70;;;0.90;;
22449;SDS011;11392;57.390;-2.468;2023-08-20T12:21:47;2.08;;;1.35;;
22449;SDS011;11392;57.390;-2.468;2023-08-20T12:24:15;1.65;;;0.93;;
22449;SDS011;11392;57.390;-2.468;2023-08-20T12:26:42;0.98;;;0.85;;
22449;SDS011;11392;57.390;-2.468;2023-08-20T12:29:09;2.13;;;0.90;;
22449;SDS011;11392;57.390;-2.468;2023-08-20T12:31:37;2.75;;;1.00;;
22449;SDS011;11392;57.390;-2.468;2023-08-20T12:34:04;2.75;;;1.17;;
22449;SDS011;11392;57.390;-2.468;2023-08-20T12:36:31;2.33;;;1.17;;
22449;SDS011;11392;57.390;-2.468;2023-08-20T12:38:58;0.98;;;0.70;;
22449;SDS011;11392;57.390;-2.468;2023-08-20T12:41:25;0.73;;;0.55;;
22449;SDS011;11392;57.390;-2.468;2023-08-20T12:43:52;1.58;;;0.85;;
22449;SDS011;11392;57.390;-2.468;2023-08-20T12:46:19;1.80;;;0.90;;
22449;SDS011;11392;57.390;-2.468;2023-08-20T12:48:47;3.53;;;0.80;;
22449;SDS011;11392;57.390;-2.468;2023-08-20T12:51:14;4.05;;;1.20;;
22449;SDS011;11392;57.390;-2.468;2023-08-20T12:53:43;1.50;;;0.90;;
22449;SDS011;11392;57.390;-2.468;2023-08-20T12:56:10;0.98;;;0.70;;
22449;SDS011;11392;57.390;-2.468;2023-08-20T12:58:38;2.92;;;1.30;;
22449;SDS011;11392;57.390;-2.468;2023-08-20T13:01:05;1.60;;;0.82;;
22449;SDS011;11392;57.390;-2.468;2023-08-20T13:03:32;1.30;;;0.90;;
22449;SDS011;11392;57.390;-2.468;2023-08-20T13:06:00;0.50;;;0.50;;
22449;SDS011;11392;57.390;-2.468;2023-08-20T13:08:27;2.47;;;1.00;;
22449;SDS011;11392;57.390;-2.468;2023-08-20T13:10:56;0.98;;;0.80;;
22449;SDS011;11392;57.390;-2.468;2023-08-20T13:13:24;4.60;;;1.35;;
22449;SDS011;11392;57.390;-2.468;2023-08-20T13:15:51;1.95;;;0.80;;
22449;SDS011;11392;57.390;-2.468;2023-08-20T13:18:20;2.28;;;1.13;;
22449;SDS011;11392;57.390;-2.468;2023-08-20T13:20:54;1.90;;;1.13;;
22449;SDS011;11392;57.390;-2.468;2023-08-20T13:23:22;1.48;;;0.80;;
22449;SDS011;11392;57.390;-2.468;2023-08-20T13:25:50;2.60;;;0.93;;
22449;SDS011;11392;57.390;-2.468;2023-08-20T13:28:17;0.80;;;0.80;;
22449;SDS011;11392;57.390;-2.468;2023-08-20T13:30:44;1.27;;;0.85;;
22449;SDS011;11392;57.390;-2.468;2023-08-20T13:33:12;3.33;;;1.02;;
22449;SDS011;11392;57.390;-2.468;2023-08-20T13:35:40;0.88;;;0.75;;
22449;SDS011;11392;57.390;-2.468;2023-08-20T13:38:08;1.60;;;1.20;;
22449;SDS011;11392;57.390;-2.468;2023-08-20T13:40:35;2.40;;;1.25;;
22449;SDS011;11392;57.390;-2.468;2023-08-20T13:43:02;2.75;;;1.10;;
22449;SDS011;11392;57.390;-2.468;2023-08-20T13:45:29;1.65;;;0.90;;
22449;SDS011;11392;57.390;-2.468;2023-08-20T13:47:57;2.65;;;1.23;;
22449;SDS011;11392;57.390;-2.468;2023-08-20T13:50:24;1.25;;;1.10;;
22449;SDS011;11392;57.390;-2.468;2023-08-20T13:52:51;1.70;;;1.30;;
22449;SDS011;11392;57.390;-2.468;2023-08-20T13:55:18;1.42;;;0.93;;
22449;SDS011;11392;57.390;-2.468;2023-08-20T13:57:47;1.30;;;1.20;;
22449;SDS011;11392;57.390;-2.468;2023-08-20T14:00:14;1.95;;;1.20;;
22449;SDS011;11392;57.390;-2.468;2023-08-20T14:02:42;2.80;;;1.40;;
22449;SDS011;11392;57.390;-2.468;2023-08-20T14:05:09;5.05;;;1.50;;
22449;SDS011;11392;57.390;-2.468;2023-08-20T14:07:36;3.40;;;1.42;;
22449;SDS011;11392;57.390;-2.468;2023-08-20T14:10:04;1.88;;;1.30;;
22449;SDS011;11392;57.390;-2.468;2023-08-20T14:12:32;2.53;;;1.48;;
22449;SDS011;11392;57.390;-2.468;2023-08-20T14:15:02;2.00;;;1.33;;
22449;SDS011;11392;57.390;-2.468;2023-08-20T14:17:29;2.15;;;1.02;;
22449;SDS011;11392;57.390;-2.468;2023-08-20T14:19:57;3.47;;;1.20;;
22449;SDS011;11392;57.390;-2.468;2023-08-20T14:22:24;1.58;;;1.35;;
22449;SDS011;11392;57.390;-2.468;2023-08-20T14:24:51;1.48;;;1.30;;
22449;SDS011;11392;57.390;-2.468;2023-08-20T14:27:18;2.40;;;1.13;;
22449;SDS011;11392;57.390;-2.468;2023-08-20T14:29:46;2.33;;;1.40;;
22449;SDS011;11392;57.390;-2.468;2023-08-20T14:32:13;2.95;;;1.30;;
22449;SDS011;11392;57.390;-2.468;2023-08-20T14:34:40;3.05;;;1.52;;
22449;SDS011;11392;57.390;-2.468;2023-08-20T14:37:07;3.38;;;1.60;;
22449;SDS011;11392;57.390;-2.468;2023-08-20T14:39:36;1.38;;;1.27;;
22449;SDS011;11392;57.390;-2.468;2023-08-20T14:42:03;2.10;;;1.80;;
22449;SDS011;11392;57.390;-2.468;2023-08-20T14:44:30;1.65;;;1.42;;
22449;SDS011;11392;57.390;-2.468;2023-08-20T14:46:57;1.48;;;1.20;;
22449;SDS011;11392;57.390;-2.468;2023-08-20T14:49:24;4.13;;;1.63;;
22449;SDS011;11392;57.390;-2.468;2023-08-20T14:51:52;3.08;;;1.58;;
22449;SDS011;11392;57.390;-2.468;2023-08-20T14:54:35;4.05;;;2.58;;
22449;SDS011;11392;57.390;-2.468;2023-08-20T14:57:02;4.18;;;1.58;;
22449;SDS011;11392;57.390;-2.468;2023-08-20T14:59:29;5.55;;;1.42;;
22449;SDS011;11392;57.390;-2.468;2023-08-20T15:01:57;5.32;;;1.52;;